createdAt,value
2018-10-09T00:02:22.728Z,4.73
2018-10-09T00:04:51.311Z,4.80
2018-10-09T00:07:20.138Z,5.20
2018-10-09T00:09:48.575Z,4.43
2018-10-09T00:12:18.209Z,4.67
2018-10-09T00:14:46.629Z,4.60
2018-10-09T00:17:15.322Z,4.23
2018-10-09T00:19:43.656Z,6.07
2018-10-09T00:22:12.302Z,3.90
2018-10-09T00:24:40.864Z,5.13
2018-10-09T00:27:10.463Z,4.20
2018-10-09T00:29:38.861Z,5.63
2018-10-09T00:32:07.251Z,4.67
2018-10-09T00:34:35.646Z,5.10
2018-10-09T00:37:04.132Z,5.97
2018-10-09T00:39:32.955Z,5.83
2018-10-09T00:42:01.651Z,5.70
2018-10-09T00:44:30.189Z,6.73
2018-10-09T00:46:58.663Z,5.50
2018-10-09T00:49:26.982Z,5.47
2018-10-09T00:51:55.386Z,5.33
2018-10-09T00:54:24.016Z,5.13
2018-10-09T00:56:52.368Z,4.43
2018-10-09T00:59:20.904Z,4.30
2018-10-09T01:01:49.530Z,4.77
2018-10-09T01:04:17.937Z,4.47
2018-10-09T01:06:46.682Z,4.50
2018-10-09T01:09:15.002Z,4.33
2018-10-09T01:11:43.286Z,4.17
2018-10-09T01:14:11.679Z,4.47
2018-10-09T01:16:40.029Z,3.77
2018-10-09T01:19:08.635Z,5.13
2018-10-09T01:21:37.283Z,3.90
2018-10-09T01:24:05.987Z,3.67
2018-10-09T01:26:34.567Z,4.17
2018-10-09T01:29:03.043Z,4.50
2018-10-09T01:31:31.434Z,4.30
2018-10-09T01:34:01.027Z,4.33
2018-10-09T01:36:29.746Z,4.53
2018-10-09T01:38:59.503Z,4.47
2018-10-09T01:41:28.238Z,4.60
2018-10-09T01:43:57.033Z,4.27
2018-10-09T01:46:25.368Z,4.20
2018-10-09T01:48:54.190Z,4.60
2018-10-09T01:51:22.791Z,4.13
2018-10-09T01:53:51.170Z,4.33
2018-10-09T01:56:19.635Z,4.60
2018-10-09T01:58:48.016Z,5.23
2018-10-09T02:01:16.423Z,5.20
2018-10-09T02:03:44.806Z,5.67
2018-10-09T02:06:13.255Z,6.00
2018-10-09T02:08:42.157Z,6.07
2018-10-09T02:11:10.570Z,5.90
2018-10-09T02:13:39.172Z,6.20
2018-10-09T02:16:07.771Z,6.37
2018-10-09T02:18:36.199Z,6.50
2018-10-09T02:21:05.003Z,6.57
2018-10-09T02:23:33.779Z,6.53
2018-10-09T02:26:02.505Z,7.50
2018-10-09T02:28:30.895Z,6.40
2018-10-09T02:30:59.372Z,6.27
2018-10-09T02:33:28.177Z,6.43
2018-10-09T02:35:56.924Z,6.57
2018-10-09T02:38:25.885Z,6.67
2018-10-09T02:40:54.527Z,6.87
2018-10-09T02:43:22.919Z,7.60
2018-10-09T02:45:51.558Z,10.00
2018-10-09T02:48:20.160Z,8.80
2018-10-09T02:50:49.076Z,7.30
2018-10-09T02:53:17.683Z,7.13
2018-10-09T02:55:46.418Z,7.50
2018-10-09T02:58:15.417Z,7.40
2018-10-09T03:00:44.318Z,6.47
2018-10-09T03:03:12.587Z,6.90
2018-10-09T03:05:41.003Z,7.03
2018-10-09T03:08:09.366Z,7.20
2018-10-09T03:10:37.767Z,7.40
2018-10-09T03:13:06.452Z,7.37
2018-10-09T03:15:34.755Z,8.20
2018-10-09T03:18:03.420Z,7.57
2018-10-09T03:20:31.819Z,7.63
2018-10-09T03:23:00.294Z,7.07
2018-10-09T03:25:28.796Z,7.80
2018-10-09T03:27:57.326Z,7.97
2018-10-09T03:30:26.172Z,7.00
2018-10-09T03:32:55.008Z,7.40
2018-10-09T03:35:23.769Z,6.87
2018-10-09T03:37:52.566Z,7.30
2018-10-09T03:40:21.465Z,7.10
2018-10-09T03:42:50.070Z,6.63
2018-10-09T03:45:18.659Z,6.20
2018-10-09T03:47:46.983Z,6.50
2018-10-09T03:50:15.720Z,6.70
2018-10-09T03:52:44.494Z,6.10
2018-10-09T03:55:13.195Z,6.53
2018-10-09T03:57:41.895Z,5.60
2018-10-09T04:00:10.358Z,5.90
2018-10-09T04:02:38.772Z,5.13
2018-10-09T04:05:07.254Z,6.30
2018-10-09T04:07:35.571Z,5.80
2018-10-09T04:10:04.495Z,5.97
2018-10-09T04:12:32.936Z,5.67
2018-10-09T04:15:01.347Z,5.60
2018-10-09T04:17:29.994Z,5.27
2018-10-09T04:19:58.530Z,5.30
2018-10-09T04:22:27.326Z,5.40
2018-10-09T04:24:56.010Z,5.53
2018-10-09T04:27:24.395Z,5.50
2018-10-09T04:29:52.796Z,4.80
2018-10-09T04:32:21.385Z,5.20
2018-10-09T04:34:50.218Z,4.87
2018-10-09T04:37:18.987Z,4.97
2018-10-09T04:39:47.502Z,4.57
2018-10-09T04:42:16.111Z,6.40
2018-10-09T04:44:44.916Z,4.77
2018-10-09T04:47:13.242Z,5.73
2018-10-09T04:49:41.995Z,4.23
2018-10-09T04:52:10.382Z,3.73
2018-10-09T04:54:39.110Z,4.00
2018-10-09T04:57:08.851Z,4.10
2018-10-09T04:59:37.245Z,3.70
2018-10-09T05:02:06.244Z,3.63
2018-10-09T05:04:34.953Z,4.13
2018-10-09T05:07:03.283Z,3.20
2018-10-09T05:09:31.668Z,3.83
2018-10-09T05:12:00.080Z,3.77
2018-10-09T05:14:30.471Z,3.80
2018-10-09T05:16:58.888Z,5.50
2018-10-09T05:19:27.323Z,6.33
2018-10-09T05:21:55.763Z,4.97
2018-10-09T05:24:24.015Z,4.00
2018-10-09T05:26:52.324Z,4.67
2018-10-09T05:29:20.623Z,4.03
2018-10-09T05:31:49.036Z,3.87
2018-10-09T05:34:17.442Z,3.70
2018-10-09T05:36:45.870Z,3.97
2018-10-09T05:39:14.147Z,4.03
2018-10-09T05:41:42.659Z,4.93
2018-10-09T05:44:10.999Z,4.13
2018-10-09T05:46:39.476Z,4.23
2018-10-09T05:49:07.894Z,4.90
2018-10-09T05:51:36.223Z,5.33
2018-10-09T05:54:04.570Z,4.57
2018-10-09T05:56:33.018Z,4.30
2018-10-09T05:59:02.506Z,5.57
2018-10-09T06:01:30.897Z,5.87
2018-10-09T06:04:00.259Z,5.40
2018-10-09T06:06:28.738Z,5.43
2018-10-09T06:08:57.087Z,6.70
2018-10-09T06:11:27.818Z,7.37
2018-10-09T06:13:56.167Z,8.93
2018-10-09T06:16:24.619Z,8.70
2018-10-09T06:18:52.954Z,8.27
2018-10-09T06:21:21.319Z,8.10
2018-10-09T06:23:49.758Z,9.47
2018-10-09T06:26:18.199Z,9.80
2018-10-09T06:28:46.651Z,11.30
2018-10-09T06:31:14.906Z,9.07
2018-10-09T06:33:43.391Z,10.37
2018-10-09T06:36:11.797Z,9.43
2018-10-09T06:38:40.189Z,9.17
2018-10-09T06:41:08.659Z,10.40
2018-10-09T06:43:36.975Z,9.70
2018-10-09T06:46:05.357Z,10.97
2018-10-09T06:48:33.790Z,10.47
2018-10-09T06:51:02.113Z,11.37
2018-10-09T06:53:30.533Z,11.00
2018-10-09T06:55:58.853Z,10.73
2018-10-09T06:58:27.136Z,10.73
2018-10-09T07:00:55.551Z,11.30
2018-10-09T07:03:24.021Z,9.87
2018-10-09T07:05:52.376Z,11.67
2018-10-09T07:08:20.803Z,13.93
2018-10-09T07:10:49.234Z,9.07
2018-10-09T07:13:17.631Z,10.00
2018-10-09T07:15:46.423Z,13.10
2018-10-09T07:18:14.823Z,12.63
2018-10-09T07:20:43.286Z,10.67
2018-10-09T07:23:11.660Z,11.43
2018-10-09T07:25:40.039Z,12.13
2018-10-09T07:28:08.554Z,10.50
2018-10-09T07:30:36.930Z,11.40
2018-10-09T07:33:05.384Z,11.40
2018-10-09T07:35:34.105Z,9.47
2018-10-09T07:38:02.512Z,10.83
2018-10-09T07:40:31.001Z,11.03
2018-10-09T07:42:59.308Z,10.43
2018-10-09T07:45:27.939Z,11.40
2018-10-09T07:47:56.371Z,11.87
2018-10-09T07:50:24.768Z,11.03
2018-10-09T07:52:53.312Z,13.13
2018-10-09T07:55:21.774Z,10.50
2018-10-09T07:57:50.159Z,12.70
2018-10-09T08:00:18.613Z,9.63
2018-10-09T08:02:46.991Z,11.03
2018-10-09T08:05:15.368Z,9.77
2018-10-09T08:07:43.755Z,10.83
2018-10-09T08:10:12.107Z,9.00
2018-10-09T08:12:40.471Z,9.93
2018-10-09T08:15:08.943Z,9.60
2018-10-09T08:17:37.337Z,9.57
2018-10-09T08:20:05.916Z,10.57
2018-10-09T08:22:34.359Z,9.00
2018-10-09T08:25:02.770Z,8.07
2018-10-09T08:27:31.127Z,9.47
2018-10-09T08:29:59.418Z,8.17
2018-10-09T08:32:27.748Z,7.20
2018-10-09T08:34:56.216Z,8.20
2018-10-09T08:37:24.607Z,7.43
2018-10-09T08:39:53.060Z,7.20
2018-10-09T08:42:21.352Z,7.20
2018-10-09T08:44:49.784Z,7.27
2018-10-09T08:47:18.208Z,7.60
2018-10-09T08:49:46.563Z,7.27
2018-10-09T08:52:14.896Z,8.83
2018-10-09T08:54:43.287Z,7.50
2018-10-09T08:57:11.736Z,7.07
2018-10-09T08:59:40.146Z,7.27
2018-10-09T09:02:08.518Z,10.30
2018-10-09T09:04:36.998Z,7.67
2018-10-09T09:07:05.328Z,7.87
2018-10-09T09:09:33.722Z,6.53
2018-10-09T09:12:02.065Z,7.00
2018-10-09T09:14:56.821Z,7.27
2018-10-09T09:17:25.249Z,9.93
2018-10-09T09:19:53.687Z,6.60
2018-10-09T09:22:22.036Z,5.40
2018-10-09T09:24:50.399Z,6.87
2018-10-09T09:30:11.771Z,5.13
2018-10-09T09:32:40.086Z,5.03
2018-10-09T09:35:08.402Z,4.80
2018-10-09T09:37:36.699Z,4.97
2018-10-09T09:40:05.076Z,7.30
2018-10-09T09:42:33.346Z,7.70
2018-10-09T09:45:01.791Z,4.77
2018-10-09T09:47:30.360Z,4.10
2018-10-09T09:49:58.865Z,4.10
2018-10-09T09:52:27.449Z,4.63
2018-10-09T09:54:55.867Z,3.70
2018-10-09T09:57:24.539Z,3.95
2018-10-09T09:59:53.234Z,3.90
2018-10-09T10:02:21.816Z,3.25
2018-10-09T10:04:50.107Z,3.62
2018-10-09T10:07:18.772Z,3.55
2018-10-09T10:09:47.375Z,3.58
2018-10-09T10:12:17.087Z,3.45
2018-10-09T10:15:17.204Z,3.20
2018-10-09T10:17:45.730Z,3.90
2018-10-09T10:20:14.334Z,3.40
2018-10-09T10:22:42.662Z,2.90
2018-10-09T10:25:10.939Z,3.00
2018-10-09T10:27:39.454Z,3.60
2018-10-09T10:30:07.846Z,3.77
2018-10-09T10:32:36.127Z,3.60
2018-10-09T10:35:04.457Z,2.87
2018-10-09T10:37:33.110Z,2.77
2018-10-09T10:40:01.468Z,4.17
2018-10-09T10:42:29.741Z,4.17
2018-10-09T10:44:58.015Z,3.12
2018-10-09T10:47:26.321Z,2.60
2018-10-09T10:49:54.824Z,3.22
2018-10-09T10:52:23.636Z,4.72
2018-10-09T10:54:52.009Z,2.70
2018-10-09T10:57:20.501Z,2.75
2018-10-09T10:59:48.789Z,3.17
2018-10-09T11:02:17.467Z,2.85
2018-10-09T11:04:46.010Z,2.87
2018-10-09T11:07:14.258Z,3.65
2018-10-09T11:09:42.524Z,2.90
2018-10-09T11:12:11.272Z,2.85
2018-10-09T11:15:20.536Z,2.80
2018-10-09T11:17:48.864Z,2.80
2018-10-09T11:20:17.813Z,4.45
2018-10-09T11:22:46.095Z,3.30
2018-10-09T11:25:14.351Z,2.77
2018-10-09T11:27:42.836Z,2.80
2018-10-09T11:30:11.109Z,3.02
2018-10-09T11:32:39.709Z,2.80
2018-10-09T11:35:08.279Z,2.70
2018-10-09T11:37:36.531Z,2.70
2018-10-09T11:40:04.914Z,2.70
2018-10-09T11:42:33.532Z,2.67
2018-10-09T11:45:01.779Z,2.70
2018-10-09T11:47:30.093Z,3.42
2018-10-09T11:49:58.375Z,2.65
2018-10-09T11:52:26.663Z,2.95
2018-10-09T11:54:54.970Z,2.85
2018-10-09T11:57:23.790Z,5.15
2018-10-09T11:59:52.174Z,3.00
2018-10-09T12:02:20.723Z,3.30
2018-10-09T12:04:49.045Z,2.62
2018-10-09T12:07:17.358Z,5.20
2018-10-09T12:09:45.634Z,2.83
2018-10-09T12:12:13.939Z,2.45
2018-10-09T12:15:25.798Z,2.87
2018-10-09T12:17:54.478Z,2.72
2018-10-09T12:20:22.947Z,2.60
2018-10-09T12:22:51.219Z,2.98
2018-10-09T12:25:19.517Z,2.50
2018-10-09T12:27:48.442Z,2.70
2018-10-09T12:30:17.310Z,2.60
2018-10-09T12:32:45.685Z,2.98
2018-10-09T12:35:14.427Z,2.87
2018-10-09T12:37:43.193Z,3.00
2018-10-09T12:40:11.456Z,2.83
2018-10-09T12:42:39.696Z,2.90
2018-10-09T12:45:08.186Z,2.70
2018-10-09T12:47:36.503Z,3.00
2018-10-09T12:50:04.869Z,2.95
2018-10-09T12:52:33.151Z,2.70
2018-10-09T12:55:01.464Z,3.10
2018-10-09T12:57:30.147Z,2.90
2018-10-09T12:59:58.454Z,2.87
2018-10-09T13:02:26.962Z,2.92
2018-10-09T13:04:55.488Z,2.98
2018-10-09T13:07:24.092Z,2.75
2018-10-09T13:09:52.640Z,3.02
2018-10-09T13:12:20.892Z,2.65
2018-10-09T13:15:29.006Z,3.20
2018-10-09T13:17:57.285Z,3.15
2018-10-09T13:20:25.991Z,3.35
2018-10-09T13:22:54.303Z,3.08
2018-10-09T13:25:23.061Z,3.00
2018-10-09T13:27:51.369Z,2.80
2018-10-09T13:30:19.704Z,2.72
2018-10-09T13:32:48.233Z,3.00
2018-10-09T13:35:16.912Z,2.92
2018-10-09T13:37:45.509Z,2.83
2018-10-09T13:40:13.833Z,3.00
2018-10-09T13:42:42.174Z,3.30
2018-10-09T13:45:10.653Z,3.47
2018-10-09T13:47:39.456Z,3.40
2018-10-09T13:50:07.627Z,3.30
2018-10-09T13:52:35.929Z,3.85
2018-10-09T13:55:04.671Z,3.40
2018-10-09T13:57:32.987Z,3.17
2018-10-09T14:00:01.654Z,3.25
2018-10-09T14:02:30.134Z,3.50
2018-10-09T14:04:58.703Z,3.70
2018-10-09T14:07:26.989Z,3.60
2018-10-09T14:09:55.477Z,3.10
2018-10-09T14:12:23.764Z,6.00
2018-10-09T14:15:28.900Z,3.42
2018-10-09T14:17:57.575Z,3.35
2018-10-09T14:20:26.427Z,3.65
2018-10-09T14:22:54.849Z,3.47
2018-10-09T14:25:23.603Z,4.15
2018-10-09T14:27:52.161Z,4.08
2018-10-09T14:30:20.838Z,9.30
2018-10-09T14:32:49.511Z,7.20
2018-10-09T14:35:17.773Z,6.17
2018-10-09T14:37:46.263Z,4.55
2018-10-09T14:40:14.843Z,4.35
2018-10-09T14:42:43.378Z,4.30
2018-10-09T14:45:12.015Z,4.10
2018-10-09T14:47:40.599Z,4.55
2018-10-09T14:50:09.314Z,5.40
2018-10-09T14:52:38.129Z,4.30
2018-10-09T14:55:06.800Z,4.55
2018-10-09T14:57:35.527Z,4.33
2018-10-09T15:00:03.868Z,4.22
2018-10-09T15:02:32.578Z,4.12
2018-10-09T15:05:00.867Z,3.92
2018-10-09T15:07:29.603Z,4.28
2018-10-09T15:09:57.892Z,3.90
2018-10-09T15:12:26.159Z,4.12
2018-10-09T15:15:41.434Z,4.03
2018-10-09T15:18:09.863Z,4.05
2018-10-09T15:20:38.112Z,4.22
2018-10-09T15:23:06.789Z,4.20
2018-10-09T15:25:35.501Z,4.70
2018-10-09T15:28:04.443Z,4.47
2018-10-09T15:30:33.077Z,4.33
2018-10-09T15:33:01.664Z,4.45
2018-10-09T15:35:30.640Z,4.15
2018-10-09T15:37:59.235Z,5.28
2018-10-09T15:40:27.462Z,6.97
2018-10-09T15:42:56.098Z,4.75
2018-10-09T15:45:25.403Z,4.87
2018-10-09T15:47:54.220Z,4.85
2018-10-09T15:50:22.716Z,4.67
2018-10-09T15:52:51.139Z,5.47
2018-10-09T15:55:19.846Z,5.87
2018-10-09T15:57:48.168Z,4.80
2018-10-09T16:00:16.835Z,4.67
2018-10-09T16:02:45.519Z,5.00
2018-10-09T16:05:14.053Z,4.42
2018-10-09T16:07:42.768Z,5.12
2018-10-09T16:10:11.397Z,5.50
2018-10-09T16:12:39.722Z,5.60
2018-10-09T16:15:58.630Z,5.67
2018-10-09T16:18:27.230Z,6.23
2018-10-09T16:20:55.529Z,5.90
2018-10-09T16:23:23.796Z,5.83
2018-10-09T16:25:52.434Z,5.50
2018-10-09T16:28:20.910Z,5.87
2018-10-09T16:30:49.158Z,5.43
2018-10-09T16:33:17.484Z,5.80
2018-10-09T16:35:45.781Z,5.87
2018-10-09T16:38:14.452Z,5.60
2018-10-09T16:40:43.067Z,6.60
2018-10-09T16:43:11.737Z,6.47
2018-10-09T16:45:40.032Z,7.27
2018-10-09T16:48:08.311Z,6.47
2018-10-09T16:50:37.063Z,6.27
2018-10-09T16:53:05.684Z,5.87
2018-10-09T16:55:34.372Z,6.20
2018-10-09T16:58:02.641Z,6.00
2018-10-09T17:00:31.290Z,6.37
2018-10-09T17:02:59.687Z,6.03
2018-10-09T17:05:28.064Z,6.23
2018-10-09T17:07:56.337Z,5.97
2018-10-09T17:10:25.104Z,6.43
2018-10-09T17:12:53.849Z,6.07
2018-10-09T17:18:39.630Z,6.67
2018-10-09T17:21:08.394Z,7.00
2018-10-09T17:23:37.284Z,7.13
2018-10-09T17:26:06.508Z,6.40
2018-10-09T17:28:36.065Z,7.07
2018-10-09T17:31:05.099Z,7.87
2018-10-09T17:33:34.155Z,7.73
2018-10-09T17:36:03.910Z,6.90
2018-10-09T17:38:32.929Z,7.63
2018-10-09T17:41:01.987Z,7.43
2018-10-09T17:43:31.022Z,7.90
2018-10-09T17:45:59.885Z,8.10
2018-10-09T17:48:28.748Z,7.73
2018-10-09T17:50:57.610Z,7.77
2018-10-09T17:53:26.390Z,6.87
2018-10-09T17:55:55.362Z,7.47
2018-10-09T17:58:24.307Z,7.50
2018-10-09T18:00:53.461Z,8.23
2018-10-09T18:03:22.580Z,7.67
2018-10-09T18:05:51.572Z,7.60
2018-10-09T18:08:20.596Z,7.37
2018-10-09T18:10:49.592Z,8.13
2018-10-09T18:13:18.702Z,7.50
2018-10-09T18:19:19.572Z,7.70
2018-10-09T18:21:48.643Z,8.13
2018-10-09T18:24:17.817Z,8.17
2018-10-09T18:26:47.842Z,8.50
2018-10-09T18:29:17.231Z,8.37
2018-10-09T18:31:46.419Z,7.80
2018-10-09T18:34:15.449Z,7.90
2018-10-09T18:36:44.578Z,7.43
2018-10-09T18:39:15.176Z,8.40
2018-10-09T18:41:46.011Z,7.90
2018-10-09T18:44:15.465Z,12.07
2018-10-09T18:46:45.389Z,11.33
2018-10-09T18:49:14.476Z,10.13
2018-10-09T18:51:44.849Z,8.63
2018-10-09T18:54:14.007Z,8.47
2018-10-09T18:56:43.061Z,8.93
2018-10-09T18:59:12.171Z,8.13
2018-10-09T19:01:41.262Z,7.87
2018-10-09T19:04:10.605Z,8.27
2018-10-09T19:06:40.018Z,9.37
2018-10-09T19:09:11.810Z,10.47
2018-10-09T19:11:40.994Z,9.37
2018-10-09T19:14:10.034Z,9.63
2018-10-09T19:16:57.204Z,9.80
2018-10-09T19:19:26.254Z,9.30
2018-10-09T19:21:55.247Z,9.90
2018-10-09T19:24:24.318Z,10.57
2018-10-09T19:26:53.403Z,10.73
2018-10-09T19:29:22.385Z,10.13
2018-10-09T19:31:51.478Z,9.97
2018-10-09T19:34:20.501Z,10.90
2018-10-09T19:36:49.561Z,10.50
2018-10-09T19:39:18.657Z,10.80
2018-10-09T19:41:47.722Z,9.83
2018-10-09T19:44:16.774Z,12.50
2018-10-09T19:46:45.721Z,10.77
2018-10-09T19:49:14.644Z,10.60
2018-10-09T19:51:43.507Z,10.90
2018-10-09T19:54:12.481Z,14.43
2018-10-09T19:56:40.961Z,13.57
2018-10-09T19:59:09.593Z,13.47
2018-10-09T20:01:38.377Z,12.67
2018-10-09T20:04:07.034Z,12.90
2018-10-09T20:06:35.620Z,12.73
2018-10-09T20:09:07.159Z,12.80
2018-10-09T20:11:35.513Z,11.50
2018-10-09T20:14:05.470Z,11.73
2018-10-09T20:16:58.378Z,11.93
2018-10-09T20:19:26.659Z,11.07
2018-10-09T20:21:54.953Z,12.17
2018-10-09T20:24:23.284Z,11.63
2018-10-09T20:30:12.696Z,12.27
2018-10-09T20:32:40.962Z,12.20
2018-10-09T20:35:09.281Z,11.73
2018-10-09T20:37:37.553Z,11.80
2018-10-09T20:40:06.013Z,12.47
2018-10-09T20:42:34.273Z,12.63
2018-10-09T20:45:02.601Z,13.40
2018-10-09T20:47:36.406Z,13.60
2018-10-09T20:50:05.031Z,13.90
2018-10-09T20:52:33.318Z,14.40
2018-10-09T20:55:02.190Z,12.63
2018-10-09T20:57:32.219Z,13.10
2018-10-09T21:00:00.618Z,13.37
2018-10-09T21:02:29.194Z,13.20
2018-10-09T21:04:57.469Z,15.73
2018-10-09T21:07:25.777Z,14.63
2018-10-09T21:09:54.095Z,14.17
2018-10-09T21:12:22.482Z,13.83
2018-10-09T21:15:32.783Z,13.30
2018-10-09T21:18:01.121Z,13.83
2018-10-09T21:20:30.415Z,14.60
2018-10-09T21:22:58.804Z,14.53
2018-10-09T21:25:27.172Z,14.57
2018-10-09T21:27:55.460Z,14.40
2018-10-09T21:30:23.911Z,14.67
2018-10-09T21:32:52.191Z,15.77
2018-10-09T21:35:20.450Z,15.93
2018-10-09T21:37:48.772Z,15.13
2018-10-09T21:40:26.701Z,14.60
2018-10-09T21:42:55.117Z,14.30
2018-10-09T21:45:23.594Z,14.90
2018-10-09T21:47:58.045Z,14.90
2018-10-09T21:50:27.147Z,14.23
2018-10-09T21:52:55.581Z,13.83
2018-10-09T21:55:24.766Z,13.27
2018-10-09T21:57:53.262Z,13.17
2018-10-09T22:00:21.647Z,12.50
2018-10-09T22:02:50.236Z,13.23
2018-10-09T22:05:18.513Z,13.57
2018-10-09T22:07:46.826Z,13.40
2018-10-09T22:10:15.644Z,12.07
2018-10-09T22:12:44.319Z,12.93
2018-10-09T22:15:12.623Z,13.80
2018-10-09T22:17:40.998Z,14.00
2018-10-09T22:20:09.339Z,12.70
2018-10-09T22:22:37.614Z,14.13
2018-10-09T22:25:05.927Z,13.90
2018-10-09T22:27:34.218Z,15.00
2018-10-09T22:30:02.517Z,13.47
2018-10-09T22:32:32.149Z,14.90
2018-10-09T22:35:00.430Z,15.37
2018-10-09T22:37:28.738Z,15.63
2018-10-09T22:39:57.079Z,14.73
2018-10-09T22:42:42.870Z,14.63
2018-10-09T22:45:11.240Z,16.03
2018-10-09T22:47:40.315Z,16.07
2018-10-09T22:50:08.590Z,15.53
2018-10-09T22:52:36.923Z,14.03
2018-10-09T22:55:06.276Z,15.53
2018-10-09T22:57:34.548Z,15.63
2018-10-09T23:00:02.969Z,15.43
2018-10-09T23:02:31.286Z,16.27
2018-10-09T23:04:59.768Z,17.07
2018-10-09T23:07:28.144Z,16.97
2018-10-09T23:09:56.381Z,17.00
2018-10-09T23:12:24.686Z,17.47
2018-10-09T23:14:52.952Z,16.97
2018-10-09T23:17:21.331Z,17.40
2018-10-09T23:19:49.636Z,16.07
2018-10-09T23:22:45.926Z,16.47
2018-10-09T23:25:18.257Z,16.23
2018-10-09T23:27:46.846Z,17.30
2018-10-09T23:30:15.322Z,15.67
2018-10-09T23:32:43.944Z,15.53
2018-10-09T23:35:12.634Z,16.43
2018-10-09T23:37:40.951Z,16.77
2018-10-09T23:40:09.445Z,17.33
2018-10-09T23:42:41.051Z,17.43
2018-10-09T23:45:09.420Z,17.00
2018-10-09T23:47:37.726Z,17.37
2018-10-09T23:50:06.094Z,16.53
2018-10-09T23:52:34.365Z,16.77
2018-10-09T23:55:02.671Z,16.57
2018-10-09T23:57:31.083Z,16.60
2018-10-09T23:59:59.278Z,16.97
